sensor_id;sensor_type;location;lat;lon;timestamp;pressure;altitude;pressure_sealevel;temperature
80496;BMP180;69819;48.798;11.770;2023-09-19T00:00:07;97154.00;;;19.00
80496;BMP180;69819;48.798;11.770;2023-09-19T00:02:33;97148.00;;;19.00
80496;BMP180;69819;48.798;11.770;2023-09-19T00:04:59;97149.00;;;19.00
80496;BMP180;69819;48.798;11.770;2023-09-19T00:07:29;97158.00;;;19.00
80496;BMP180;69819;48.798;11.770;2023-09-19T00:09:54;97159.00;;;19.00
80496;BMP180;69819;48.798;11.770;2023-09-19T00:12:20;97141.00;;;19.00
80496;BMP180;69819;48.798;11.770;2023-09-19T00:14:46;97171.00;;;19.00
80496;BMP180;69819;48.798;11.770;2023-09-19T00:17:13;97169.00;;;19.00
80496;BMP180;69819;48.798;11.770;2023-09-19T00:19:41;97172.00;;;19.00
80496;BMP180;69819;48.798;11.770;2023-09-19T00:22:08;97162.00;;;19.00
80496;BMP180;69819;48.798;11.770;2023-09-19T00:24:34;97165.00;;;19.00
80496;BMP180;69819;48.798;11.770;2023-09-19T00:26:59;97142.00;;;19.00
80496;BMP180;69819;48.798;11.770;2023-09-19T00:29:26;97150.00;;;19.10
80496;BMP180;69819;48.798;11.770;2023-09-19T00:31:56;97157.00;;;19.10
80496;BMP180;69819;48.798;11.770;2023-09-19T00:34:24;97164.00;;;19.10
80496;BMP180;69819;48.798;11.770;2023-09-19T00:36:51;97160.00;;;19.10
80496;BMP180;69819;48.798;11.770;2023-09-19T00:39:20;97151.00;;;19.10
80496;BMP180;69819;48.798;11.770;2023-09-19T00:41:47;97160.00;;;19.10
80496;BMP180;69819;48.798;11.770;2023-09-19T00:44:13;97165.00;;;19.10
80496;BMP180;69819;48.798;11.770;2023-09-19T00:46:41;97150.00;;;19.10
80496;BMP180;69819;48.798;11.770;2023-09-19T00:49:09;97171.00;;;19.10
80496;BMP180;69819;48.798;11.770;2023-09-19T00:51:35;97168.00;;;19.20
80496;BMP180;69819;48.798;11.770;2023-09-19T00:54:02;97174.00;;;19.20
80496;BMP180;69819;48.798;11.770;2023-09-19T00:56:29;97180.00;;;19.20
80496;BMP180;69819;48.798;11.770;2023-09-19T00:58:55;97172.00;;;19.20
80496;BMP180;69819;48.798;11.770;2023-09-19T01:01:21;97150.00;;;19.20
80496;BMP180;69819;48.798;11.770;2023-09-19T01:03:47;97174.00;;;19.30
80496;BMP180;69819;48.798;11.770;2023-09-19T01:06:13;97174.00;;;19.30
80496;BMP180;69819;48.798;11.770;2023-09-19T01:08:39;97185.00;;;19.30
80496;BMP180;69819;48.798;11.770;2023-09-19T01:11:31;97156.00;;;19.30
80496;BMP180;69819;48.798;11.770;2023-09-19T01:17:23;97191.00;;;19.30
80496;BMP180;69819;48.798;11.770;2023-09-19T01:20:11;97195.00;;;19.40
80496;BMP180;69819;48.798;11.770;2023-09-19T01:26:23;97186.00;;;19.40
80496;BMP180;69819;48.798;11.770;2023-09-19T01:29:37;97198.00;;;19.40
80496;BMP180;69819;48.798;11.770;2023-09-19T01:32:06;97192.00;;;19.50
80496;BMP180;69819;48.798;11.770;2023-09-19T01:37:14;97209.00;;;19.50
80496;BMP180;69819;48.798;11.770;2023-09-19T01:39:44;97210.00;;;19.50
80496;BMP180;69819;48.798;11.770;2023-09-19T01:42:45;97190.00;;;19.50
80496;BMP180;69819;48.798;11.770;2023-09-19T01:48:42;97206.00;;;19.50
80496;BMP180;69819;48.798;11.770;2023-09-19T01:51:20;97207.00;;;19.60
80496;BMP180;69819;48.798;11.770;2023-09-19T01:54:03;97202.00;;;19.60
80496;BMP180;69819;48.798;11.770;2023-09-19T01:56:45;97192.00;;;19.60
80496;BMP180;69819;48.798;11.770;2023-09-19T01:59:18;97188.00;;;19.70
80496;BMP180;69819;48.798;11.770;2023-09-19T02:01:49;97193.00;;;19.70
80496;BMP180;69819;48.798;11.770;2023-09-19T02:04:15;97193.00;;;19.70
80496;BMP180;69819;48.798;11.770;2023-09-19T02:06:42;97204.00;;;19.70
80496;BMP180;69819;48.798;11.770;2023-09-19T02:09:08;97209.00;;;19.70
80496;BMP180;69819;48.798;11.770;2023-09-19T02:11:35;97204.00;;;19.80
80496;BMP180;69819;48.798;11.770;2023-09-19T02:14:02;97195.00;;;19.80
80496;BMP180;69819;48.798;11.770;2023-09-19T02:16:28;97203.00;;;19.80
80496;BMP180;69819;48.798;11.770;2023-09-19T02:18:54;97181.00;;;19.80
80496;BMP180;69819;48.798;11.770;2023-09-19T02:21:20;97179.00;;;19.80
80496;BMP180;69819;48.798;11.770;2023-09-19T02:23:47;97199.00;;;19.80
80496;BMP180;69819;48.798;11.770;2023-09-19T02:26:13;97188.00;;;19.80
80496;BMP180;69819;48.798;11.770;2023-09-19T02:28:40;97194.00;;;19.80
80496;BMP180;69819;48.798;11.770;2023-09-19T02:31:06;97195.00;;;19.90
80496;BMP180;69819;48.798;11.770;2023-09-19T02:33:32;97206.00;;;19.80
80496;BMP180;69819;48.798;11.770;2023-09-19T02:35:58;97216.00;;;19.90
80496;BMP180;69819;48.798;11.770;2023-09-19T02:38:25;97218.00;;;19.90
80496;BMP180;69819;48.798;11.770;2023-09-19T02:40:52;97215.00;;;19.90
80496;BMP180;69819;48.798;11.770;2023-09-19T02:43:18;97214.00;;;19.90
80496;BMP180;69819;48.798;11.770;2023-09-19T02:45:48;97217.00;;;19.90
80496;BMP180;69819;48.798;11.770;2023-09-19T02:48:19;97215.00;;;19.90
80496;BMP180;69819;48.798;11.770;2023-09-19T02:50:46;97225.00;;;19.90
80496;BMP180;69819;48.798;11.770;2023-09-19T02:53:12;97224.00;;;19.90
80496;BMP180;69819;48.798;11.770;2023-09-19T02:55:39;97227.00;;;19.90
80496;BMP180;69819;48.798;11.770;2023-09-19T02:58:08;97236.00;;;19.90
80496;BMP180;69819;48.798;11.770;2023-09-19T03:00:37;97261.00;;;19.90
80496;BMP180;69819;48.798;11.770;2023-09-19T03:03:03;97219.00;;;19.90
80496;BMP180;69819;48.798;11.770;2023-09-19T03:05:30;97237.00;;;19.90
80496;BMP180;69819;48.798;11.770;2023-09-19T03:07:57;97229.00;;;19.90
80496;BMP180;69819;48.798;11.770;2023-09-19T03:10:26;97233.00;;;19.90
80496;BMP180;69819;48.798;11.770;2023-09-19T03:12:54;97254.00;;;19.90
80496;BMP180;69819;48.798;11.770;2023-09-19T03:15:20;97258.00;;;19.90
80496;BMP180;69819;48.798;11.770;2023-09-19T03:17:47;97245.00;;;19.90
80496;BMP180;69819;48.798;11.770;2023-09-19T03:20:14;97249.00;;;19.90
80496;BMP180;69819;48.798;11.770;2023-09-19T03:22:45;97264.00;;;19.90
80496;BMP180;69819;48.798;11.770;2023-09-19T03:25:12;97247.00;;;19.90
80496;BMP180;69819;48.798;11.770;2023-09-19T03:27:41;97237.00;;;19.90
80496;BMP180;69819;48.798;11.770;2023-09-19T03:30:07;97266.00;;;19.90
80496;BMP180;69819;48.798;11.770;2023-09-19T03:32:47;97266.00;;;19.80
80496;BMP180;69819;48.798;11.770;2023-09-19T03:35:16;97266.00;;;19.80
80496;BMP180;69819;48.798;11.770;2023-09-19T03:37:43;97272.00;;;19.80
80496;BMP180;69819;48.798;11.770;2023-09-19T03:40:10;97272.00;;;19.80
80496;BMP180;69819;48.798;11.770;2023-09-19T03:42:40;97268.00;;;19.80
80496;BMP180;69819;48.798;11.770;2023-09-19T03:45:10;97274.00;;;19.80
80496;BMP180;69819;48.798;11.770;2023-09-19T03:47:41;97255.00;;;19.80
80496;BMP180;69819;48.798;11.770;2023-09-19T03:50:08;97248.00;;;19.80
80496;BMP180;69819;48.798;11.770;2023-09-19T03:52:36;97277.00;;;19.80
80496;BMP180;69819;48.798;11.770;2023-09-19T03:55:02;97264.00;;;19.80
80496;BMP180;69819;48.798;11.770;2023-09-19T03:57:30;97270.00;;;19.80
80496;BMP180;69819;48.798;11.770;2023-09-19T03:59:55;97283.00;;;19.80
80496;BMP180;69819;48.798;11.770;2023-09-19T04:02:22;97266.00;;;19.80
80496;BMP180;69819;48.798;11.770;2023-09-19T04:04:49;97275.00;;;19.80
80496;BMP180;69819;48.798;11.770;2023-09-19T04:07:15;97275.00;;;19.80
80496;BMP180;69819;48.798;11.770;2023-09-19T04:09:41;97280.00;;;19.80
80496;BMP180;69819;48.798;11.770;2023-09-19T04:12:07;97268.00;;;19.80
80496;BMP180;69819;48.798;11.770;2023-09-19T04:14:37;97265.00;;;19.80
80496;BMP180;69819;48.798;11.770;2023-09-19T04:17:03;97259.00;;;19.80
80496;BMP180;69819;48.798;11.770;2023-09-19T04:19:31;97286.00;;;19.80
80496;BMP180;69819;48.798;11.770;2023-09-19T04:21:56;97288.00;;;19.80
80496;BMP180;69819;48.798;11.770;2023-09-19T04:24:22;97261.00;;;19.80
80496;BMP180;69819;48.798;11.770;2023-09-19T04:26:48;97277.00;;;19.80
80496;BMP180;69819;48.798;11.770;2023-09-19T04:29:14;97256.00;;;19.80
80496;BMP180;69819;48.798;11.770;2023-09-19T04:31:40;97293.00;;;19.80
80496;BMP180;69819;48.798;11.770;2023-09-19T04:34:09;97280.00;;;19.80
80496;BMP180;69819;48.798;11.770;2023-09-19T04:36:35;97300.00;;;19.80
80496;BMP180;69819;48.798;11.770;2023-09-19T04:39:03;97289.00;;;19.80
80496;BMP180;69819;48.798;11.770;2023-09-19T04:41:33;97298.00;;;19.80
80496;BMP180;69819;48.798;11.770;2023-09-19T04:44:00;97296.00;;;19.80
80496;BMP180;69819;48.798;11.770;2023-09-19T04:46:27;97312.00;;;19.80
80496;BMP180;69819;48.798;11.770;2023-09-19T04:48:52;97304.00;;;19.80
80496;BMP180;69819;48.798;11.770;2023-09-19T04:51:18;97325.00;;;19.80
80496;BMP180;69819;48.798;11.770;2023-09-19T04:53:46;97319.00;;;19.80
80496;BMP180;69819;48.798;11.770;2023-09-19T04:56:12;97277.00;;;19.80
80496;BMP180;69819;48.798;11.770;2023-09-19T04:58:38;97318.00;;;19.80
80496;BMP180;69819;48.798;11.770;2023-09-19T05:01:04;97323.00;;;19.80
80496;BMP180;69819;48.798;11.770;2023-09-19T05:03:30;97306.00;;;19.80
80496;BMP180;69819;48.798;11.770;2023-09-19T05:05:56;97311.00;;;19.90
80496;BMP180;69819;48.798;11.770;2023-09-19T05:08:22;97323.00;;;19.90
80496;BMP180;69819;48.798;11.770;2023-09-19T05:10:48;97311.00;;;19.90
80496;BMP180;69819;48.798;11.770;2023-09-19T05:13:14;97330.00;;;19.90
80496;BMP180;69819;48.798;11.770;2023-09-19T05:15:40;97307.00;;;19.90
80496;BMP180;69819;48.798;11.770;2023-09-19T05:18:06;97344.00;;;19.90
80496;BMP180;69819;48.798;11.770;2023-09-19T05:20:35;97330.00;;;19.90
80496;BMP180;69819;48.798;11.770;2023-09-19T05:23:06;97329.00;;;20.00
80496;BMP180;69819;48.798;11.770;2023-09-19T05:25:40;97334.00;;;19.90
80496;BMP180;69819;48.798;11.770;2023-09-19T05:28:10;97332.00;;;20.00
80496;BMP180;69819;48.798;11.770;2023-09-19T05:30:40;97346.00;;;20.00
80496;BMP180;69819;48.798;11.770;2023-09-19T05:33:09;97318.00;;;20.00
80496;BMP180;69819;48.798;11.770;2023-09-19T05:35:36;97350.00;;;20.00
80496;BMP180;69819;48.798;11.770;2023-09-19T05:38:05;97341.00;;;20.00
80496;BMP180;69819;48.798;11.770;2023-09-19T05:40:35;97339.00;;;20.00
80496;BMP180;69819;48.798;11.770;2023-09-19T05:43:01;97353.00;;;20.10
80496;BMP180;69819;48.798;11.770;2023-09-19T05:45:28;97341.00;;;20.10
80496;BMP180;69819;48.798;11.770;2023-09-19T05:47:54;97345.00;;;20.10
80496;BMP180;69819;48.798;11.770;2023-09-19T05:50:30;97307.00;;;20.10
80496;BMP180;69819;48.798;11.770;2023-09-19T05:52:57;97330.00;;;20.10
80496;BMP180;69819;48.798;11.770;2023-09-19T05:55:23;97328.00;;;20.00
80496;BMP180;69819;48.798;11.770;2023-09-19T05:57:53;97339.00;;;20.00
80496;BMP180;69819;48.798;11.770;2023-09-19T06:00:24;97352.00;;;20.00
80496;BMP180;69819;48.798;11.770;2023-09-19T06:02:57;97350.00;;;20.00
80496;BMP180;69819;48.798;11.770;2023-09-19T06:05:24;97354.00;;;20.20
80496;BMP180;69819;48.798;11.770;2023-09-19T06:07:52;97334.00;;;20.30
80496;BMP180;69819;48.798;11.770;2023-09-19T06:10:19;97355.00;;;20.80
80496;BMP180;69819;48.798;11.770;2023-09-19T06:12:47;97366.00;;;21.30
80496;BMP180;69819;48.798;11.770;2023-09-19T06:15:15;97361.00;;;21.80
80496;BMP180;69819;48.798;11.770;2023-09-19T06:17:55;97358.00;;;22.40
80496;BMP180;69819;48.798;11.770;2023-09-19T06:20:23;97345.00;;;23.00
80496;BMP180;69819;48.798;11.770;2023-09-19T06:22:51;97369.00;;;23.70
80496;BMP180;69819;48.798;11.770;2023-09-19T06:25:17;97380.00;;;24.40
80496;BMP180;69819;48.798;11.770;2023-09-19T06:27:52;97380.00;;;25.10
80496;BMP180;69819;48.798;11.770;2023-09-19T06:30:20;97388.00;;;25.90
80496;BMP180;69819;48.798;11.770;2023-09-19T06:32:46;97394.00;;;26.60
80496;BMP180;69819;48.798;11.770;2023-09-19T06:35:14;97385.00;;;27.10
80496;BMP180;69819;48.798;11.770;2023-09-19T06:37:42;97407.00;;;27.40
80496;BMP180;69819;48.798;11.770;2023-09-19T06:40:14;97393.00;;;27.50
80496;BMP180;69819;48.798;11.770;2023-09-19T06:42:53;97407.00;;;27.50
80496;BMP180;69819;48.798;11.770;2023-09-19T06:45:20;97413.00;;;27.50
80496;BMP180;69819;48.798;11.770;2023-09-19T06:47:49;97408.00;;;27.30
80496;BMP180;69819;48.798;11.770;2023-09-19T06:50:20;97399.00;;;27.10
80496;BMP180;69819;48.798;11.770;2023-09-19T06:52:49;97398.00;;;26.90
80496;BMP180;69819;48.798;11.770;2023-09-19T06:55:21;97405.00;;;26.60
80496;BMP180;69819;48.798;11.770;2023-09-19T06:57:51;97384.00;;;26.50
80496;BMP180;69819;48.798;11.770;2023-09-19T07:00:17;97396.00;;;26.80
80496;BMP180;69819;48.798;11.770;2023-09-19T07:03:05;97406.00;;;27.30
80496;BMP180;69819;48.798;11.770;2023-09-19T07:05:35;97407.00;;;28.00
80496;BMP180;69819;48.798;11.770;2023-09-19T07:08:06;97415.00;;;28.50
80496;BMP180;69819;48.798;11.770;2023-09-19T07:10:32;97411.00;;;29.20
80496;BMP180;69819;48.798;11.770;2023-09-19T07:13:07;97422.00;;;29.80
80496;BMP180;69819;48.798;11.770;2023-09-19T07:15:37;97424.00;;;30.50
80496;BMP180;69819;48.798;11.770;2023-09-19T07:18:13;97435.00;;;31.30
80496;BMP180;69819;48.798;11.770;2023-09-19T07:20:40;97440.00;;;32.00
80496;BMP180;69819;48.798;11.770;2023-09-19T07:23:11;97438.00;;;32.70
80496;BMP180;69819;48.798;11.770;2023-09-19T07:25:40;97448.00;;;33.30
80496;BMP180;69819;48.798;11.770;2023-09-19T07:28:06;97461.00;;;33.90
80496;BMP180;69819;48.798;11.770;2023-09-19T07:30:36;97440.00;;;34.50
80496;BMP180;69819;48.798;11.770;2023-09-19T07:33:03;97461.00;;;35.00
80496;BMP180;69819;48.798;11.770;2023-09-19T07:35:31;97467.00;;;35.50
80496;BMP180;69819;48.798;11.770;2023-09-19T07:37:57;97445.00;;;35.90
80496;BMP180;69819;48.798;11.770;2023-09-19T07:40:24;97468.00;;;36.00
80496;BMP180;69819;48.798;11.770;2023-09-19T07:42:52;97478.00;;;35.80
80496;BMP180;69819;48.798;11.770;2023-09-19T07:45:18;97467.00;;;35.40
80496;BMP180;69819;48.798;11.770;2023-09-19T07:47:48;97479.00;;;35.00
80496;BMP180;69819;48.798;11.770;2023-09-19T07:50:18;97474.00;;;34.60
80496;BMP180;69819;48.798;11.770;2023-09-19T07:52:49;97463.00;;;34.20
80496;BMP180;69819;48.798;11.770;2023-09-19T07:55:19;97480.00;;;33.80
80496;BMP180;69819;48.798;11.770;2023-09-19T07:57:49;97466.00;;;33.50
80496;BMP180;69819;48.798;11.770;2023-09-19T08:00:15;97479.00;;;33.20
80496;BMP180;69819;48.798;11.770;2023-09-19T08:02:42;97483.00;;;32.90
80496;BMP180;69819;48.798;11.770;2023-09-19T08:05:12;97480.00;;;32.60
80496;BMP180;69819;48.798;11.770;2023-09-19T08:07:43;97481.00;;;32.30
80496;BMP180;69819;48.798;11.770;2023-09-19T08:10:10;97460.00;;;32.10
80496;BMP180;69819;48.798;11.770;2023-09-19T08:12:47;97482.00;;;31.80
80496;BMP180;69819;48.798;11.770;2023-09-19T08:15:20;97466.00;;;31.60
80496;BMP180;69819;48.798;11.770;2023-09-19T08:17:47;97470.00;;;31.50
80496;BMP180;69819;48.798;11.770;2023-09-19T08:20:14;97479.00;;;31.30
80496;BMP180;69819;48.798;11.770;2023-09-19T08:22:53;97483.00;;;31.10
80496;BMP180;69819;48.798;11.770;2023-09-19T08:25:23;97484.00;;;30.90
80496;BMP180;69819;48.798;11.770;2023-09-19T08:27:50;97495.00;;;30.80
80496;BMP180;69819;48.798;11.770;2023-09-19T08:30:19;97487.00;;;30.60
80496;BMP180;69819;48.798;11.770;2023-09-19T08:32:59;97486.00;;;30.40
80496;BMP180;69819;48.798;11.770;2023-09-19T08:35:26;97476.00;;;30.30
80496;BMP180;69819;48.798;11.770;2023-09-19T08:37:52;97454.00;;;30.20
80496;BMP180;69819;48.798;11.770;2023-09-19T08:40:18;97475.00;;;30.20
80496;BMP180;69819;48.798;11.770;2023-09-19T08:42:53;97486.00;;;30.20
80496;BMP180;69819;48.798;11.770;2023-09-19T08:45:24;97481.00;;;30.30
80496;BMP180;69819;48.798;11.770;2023-09-19T08:48:27;97493.00;;;30.50
80496;BMP180;69819;48.798;11.770;2023-09-19T08:51:03;97495.00;;;30.60
80496;BMP180;69819;48.798;11.770;2023-09-19T08:53:52;97495.00;;;30.50
80496;BMP180;69819;48.798;11.770;2023-09-19T08:56:22;97499.00;;;30.40
80496;BMP180;69819;48.798;11.770;2023-09-19T08:58:53;97473.00;;;30.20
80496;BMP180;69819;48.798;11.770;2023-09-19T09:01:21;97492.00;;;29.90
80496;BMP180;69819;48.798;11.770;2023-09-19T09:03:52;97501.00;;;29.60
80496;BMP180;69819;48.798;11.770;2023-09-19T09:06:23;97500.00;;;29.30
80496;BMP180;69819;48.798;11.770;2023-09-19T09:08:53;97517.00;;;29.00
80496;BMP180;69819;48.798;11.770;2023-09-19T09:11:20;97513.00;;;28.70
80496;BMP180;69819;48.798;11.770;2023-09-19T09:13:47;97519.00;;;28.40
80496;BMP180;69819;48.798;11.770;2023-09-19T09:16:14;97548.00;;;28.00
80496;BMP180;69819;48.798;11.770;2023-09-19T09:18:45;97553.00;;;27.60
80496;BMP180;69819;48.798;11.770;2023-09-19T09:21:12;97560.00;;;27.20
80496;BMP180;69819;48.798;11.770;2023-09-19T09:23:39;97552.00;;;26.90
80496;BMP180;69819;48.798;11.770;2023-09-19T09:26:04;97575.00;;;26.50
80496;BMP180;69819;48.798;11.770;2023-09-19T09:28:34;97576.00;;;26.20
80496;BMP180;69819;48.798;11.770;2023-09-19T09:31:02;97580.00;;;25.90
80496;BMP180;69819;48.798;11.770;2023-09-19T09:33:35;97546.00;;;25.60
80496;BMP180;69819;48.798;11.770;2023-09-19T09:36:03;97541.00;;;25.30
80496;BMP180;69819;48.798;11.770;2023-09-19T09:38:46;97584.00;;;25.00
80496;BMP180;69819;48.798;11.770;2023-09-19T09:41:16;97569.00;;;24.80
80496;BMP180;69819;48.798;11.770;2023-09-19T09:43:53;97550.00;;;24.60
80496;BMP180;69819;48.798;11.770;2023-09-19T09:46:21;97562.00;;;24.40
80496;BMP180;69819;48.798;11.770;2023-09-19T09:51:51;97568.00;;;24.10
80496;BMP180;69819;48.798;11.770;2023-09-19T09:54:27;97576.00;;;24.00
80496;BMP180;69819;48.798;11.770;2023-09-19T09:57:04;97574.00;;;23.90
80496;BMP180;69819;48.798;11.770;2023-09-19T09:59:55;97585.00;;;23.90
80496;BMP180;69819;48.798;11.770;2023-09-19T10:02:29;97583.00;;;23.90
80496;BMP180;69819;48.798;11.770;2023-09-19T10:04:59;97590.00;;;24.00
80496;BMP180;69819;48.798;11.770;2023-09-19T10:07:36;97585.00;;;24.00
80496;BMP180;69819;48.798;11.770;2023-09-19T10:10:07;97591.00;;;24.00
80496;BMP180;69819;48.798;11.770;2023-09-19T10:12:58;97586.00;;;24.10
80496;BMP180;69819;48.798;11.770;2023-09-19T10:15:32;97593.00;;;24.20
80496;BMP180;69819;48.798;11.770;2023-09-19T10:18:01;97593.00;;;24.20
80496;BMP180;69819;48.798;11.770;2023-09-19T10:20:30;97599.00;;;24.30
80496;BMP180;69819;48.798;11.770;2023-09-19T10:23:08;97591.00;;;24.20
80496;BMP180;69819;48.798;11.770;2023-09-19T10:25:43;97588.00;;;24.20
80496;BMP180;69819;48.798;11.770;2023-09-19T10:28:14;97588.00;;;24.20
80496;BMP180;69819;48.798;11.770;2023-09-19T10:30:48;97592.00;;;24.00
80496;BMP180;69819;48.798;11.770;2023-09-19T10:33:18;97594.00;;;24.10
80496;BMP180;69819;48.798;11.770;2023-09-19T10:35:50;97598.00;;;24.10
80496;BMP180;69819;48.798;11.770;2023-09-19T10:38:24;97599.00;;;24.10
80496;BMP180;69819;48.798;11.770;2023-09-19T10:40:53;97584.00;;;24.10
80496;BMP180;69819;48.798;11.770;2023-09-19T10:43:23;97595.00;;;24.10
80496;BMP180;69819;48.798;11.770;2023-09-19T10:45:50;97567.00;;;24.20
80496;BMP180;69819;48.798;11.770;2023-09-19T10:48:19;97603.00;;;24.30
80496;BMP180;69819;48.798;11.770;2023-09-19T10:51:11;97602.00;;;24.40
80496;BMP180;69819;48.798;11.770;2023-09-19T10:53:52;97592.00;;;24.50
80496;BMP180;69819;48.798;11.770;2023-09-19T10:56:26;97575.00;;;24.60
80496;BMP180;69819;48.798;11.770;2023-09-19T10:59:13;97587.00;;;24.80
80496;BMP180;69819;48.798;11.770;2023-09-19T11:01:51;97593.00;;;24.90
80496;BMP180;69819;48.798;11.770;2023-09-19T11:04:30;97597.00;;;25.10
80496;BMP180;69819;48.798;11.770;2023-09-19T11:07:11;97592.00;;;25.30
80496;BMP180;69819;48.798;11.770;2023-09-19T11:09:51;97581.00;;;25.50
80496;BMP180;69819;48.798;11.770;2023-09-19T11:15:08;97580.00;;;25.90
80496;BMP180;69819;48.798;11.770;2023-09-19T11:17:43;97589.00;;;26.00
80496;BMP180;69819;48.798;11.770;2023-09-19T11:30:32;97571.00;;;26.40
80496;BMP180;69819;48.798;11.770;2023-09-19T11:33:28;97562.00;;;26.50
80496;BMP180;69819;48.798;11.770;2023-09-19T11:36:12;97561.00;;;26.50
80496;BMP180;69819;48.798;11.770;2023-09-19T11:46:55;97564.00;;;26.70
80496;BMP180;69819;48.798;11.770;2023-09-19T11:49:30;97562.00;;;26.80
80496;BMP180;69819;48.798;11.770;2023-09-19T11:52:02;97561.00;;;26.80
80496;BMP180;69819;48.798;11.770;2023-09-19T11:54:32;97546.00;;;26.80
80496;BMP180;69819;48.798;11.770;2023-09-19T11:57:00;97542.00;;;26.90
80496;BMP180;69819;48.798;11.770;2023-09-19T11:59:32;97539.00;;;26.90
80496;BMP180;69819;48.798;11.770;2023-09-19T12:02:19;97552.00;;;26.90
80496;BMP180;69819;48.798;11.770;2023-09-19T12:04:53;97534.00;;;27.00
80496;BMP180;69819;48.798;11.770;2023-09-19T12:07:19;97544.00;;;27.10
80496;BMP180;69819;48.798;11.770;2023-09-19T12:10:03;97548.00;;;27.10
80496;BMP180;69819;48.798;11.770;2023-09-19T12:12:30;97536.00;;;27.20
80496;BMP180;69819;48.798;11.770;2023-09-19T12:14:57;97523.00;;;27.30
80496;BMP180;69819;48.798;11.770;2023-09-19T12:17:35;97539.00;;;27.30
80496;BMP180;69819;48.798;11.770;2023-09-19T12:20:01;97540.00;;;27.40
80496;BMP180;69819;48.798;11.770;2023-09-19T12:22:46;97547.00;;;27.40
80496;BMP180;69819;48.798;11.770;2023-09-19T12:25:13;97542.00;;;27.50
80496;BMP180;69819;48.798;11.770;2023-09-19T12:27:46;97538.00;;;27.50
80496;BMP180;69819;48.798;11.770;2023-09-19T12:30:13;97533.00;;;27.60
80496;BMP180;69819;48.798;11.770;2023-09-19T12:32:40;97505.00;;;27.70
80496;BMP180;69819;48.798;11.770;2023-09-19T12:35:08;97534.00;;;27.80
80496;BMP180;69819;48.798;11.770;2023-09-19T12:37:37;97514.00;;;27.90
80496;BMP180;69819;48.798;11.770;2023-09-19T12:40:09;97529.00;;;28.00
80496;BMP180;69819;48.798;11.770;2023-09-19T12:42:49;97526.00;;;28.00
80496;BMP180;69819;48.798;11.770;2023-09-19T12:45:16;97515.00;;;28.00
80496;BMP180;69819;48.798;11.770;2023-09-19T12:48:24;97504.00;;;28.00
80496;BMP180;69819;48.798;11.770;2023-09-19T12:51:11;97510.00;;;28.00
80496;BMP180;69819;48.798;11.770;2023-09-19T12:53:44;97494.00;;;27.90
80496;BMP180;69819;48.798;11.770;2023-09-19T12:56:14;97514.00;;;27.90
80496;BMP180;69819;48.798;11.770;2023-09-19T13:01:23;97499.00;;;27.80
80496;BMP180;69819;48.798;11.770;2023-09-19T13:06:38;97498.00;;;27.80
80496;BMP180;69819;48.798;11.770;2023-09-19T13:09:11;97493.00;;;27.80
80496;BMP180;69819;48.798;11.770;2023-09-19T13:11:38;97515.00;;;27.80
80496;BMP180;69819;48.798;11.770;2023-09-19T13:14:22;97521.00;;;27.80
80496;BMP180;69819;48.798;11.770;2023-09-19T13:17:07;97532.00;;;27.80
80496;BMP180;69819;48.798;11.770;2023-09-19T13:25:05;97517.00;;;27.60
80496;BMP180;69819;48.798;11.770;2023-09-19T13:27:32;97504.00;;;27.70
80496;BMP180;69819;48.798;11.770;2023-09-19T13:29:58;97495.00;;;27.70
80496;BMP180;69819;48.798;11.770;2023-09-19T13:32:25;97498.00;;;27.70
80496;BMP180;69819;48.798;11.770;2023-09-19T13:34:51;97490.00;;;27.60
80496;BMP180;69819;48.798;11.770;2023-09-19T13:37:17;97494.00;;;27.60
80496;BMP180;69819;48.798;11.770;2023-09-19T13:39:44;97486.00;;;27.60
80496;BMP180;69819;48.798;11.770;2023-09-19T13:42:13;97465.00;;;27.60
80496;BMP180;69819;48.798;11.770;2023-09-19T13:44:39;97484.00;;;27.50
80496;BMP180;69819;48.798;11.770;2023-09-19T13:47:07;97511.00;;;27.50
80496;BMP180;69819;48.798;11.770;2023-09-19T13:49:38;97498.00;;;27.50
80496;BMP180;69819;48.798;11.770;2023-09-19T13:52:04;97481.00;;;27.50
80496;BMP180;69819;48.798;11.770;2023-09-19T13:54:31;97485.00;;;27.40
80496;BMP180;69819;48.798;11.770;2023-09-19T13:56:57;97494.00;;;27.40
80496;BMP180;69819;48.798;11.770;2023-09-19T13:59:23;97461.00;;;27.40
80496;BMP180;69819;48.798;11.770;2023-09-19T14:01:50;97490.00;;;27.30
80496;BMP180;69819;48.798;11.770;2023-09-19T14:04:20;97480.00;;;27.30
80496;BMP180;69819;48.798;11.770;2023-09-19T14:06:47;97481.00;;;27.20
80496;BMP180;69819;48.798;11.770;2023-09-19T14:09:13;97472.00;;;27.10
80496;BMP180;69819;48.798;11.770;2023-09-19T14:11:39;97482.00;;;27.00
80496;BMP180;69819;48.798;11.770;2023-09-19T14:14:05;97477.00;;;27.00
80496;BMP180;69819;48.798;11.770;2023-09-19T14:16:31;97452.00;;;26.80
80496;BMP180;69819;48.798;11.770;2023-09-19T14:18:58;97480.00;;;26.80
80496;BMP180;69819;48.798;11.770;2023-09-19T14:21:25;97469.00;;;26.70
80496;BMP180;69819;48.798;11.770;2023-09-19T14:23:51;97454.00;;;26.60
80496;BMP180;69819;48.798;11.770;2023-09-19T14:26:17;97456.00;;;26.60
80496;BMP180;69819;48.798;11.770;2023-09-19T14:28:44;97453.00;;;26.50
80496;BMP180;69819;48.798;11.770;2023-09-19T14:31:11;97431.00;;;26.50
80496;BMP180;69819;48.798;11.770;2023-09-19T14:33:38;97425.00;;;26.40
80496;BMP180;69819;48.798;11.770;2023-09-19T14:36:05;97462.00;;;26.40
80496;BMP180;69819;48.798;11.770;2023-09-19T14:38:37;97448.00;;;26.40
80496;BMP180;69819;48.798;11.770;2023-09-19T14:41:06;97448.00;;;26.30
80496;BMP180;69819;48.798;11.770;2023-09-19T14:43:32;97446.00;;;26.30
80496;BMP180;69819;48.798;11.770;2023-09-19T14:46:07;97420.00;;;26.20
80496;BMP180;69819;48.798;11.770;2023-09-19T14:48:35;97444.00;;;26.20
80496;BMP180;69819;48.798;11.770;2023-09-19T14:51:05;97421.00;;;26.10
80496;BMP180;69819;48.798;11.770;2023-09-19T14:53:32;97442.00;;;26.10
80496;BMP180;69819;48.798;11.770;2023-09-19T14:56:04;97431.00;;;26.00
80496;BMP180;69819;48.798;11.770;2023-09-19T14:58:33;97446.00;;;26.00
80496;BMP180;69819;48.798;11.770;2023-09-19T15:01:13;97438.00;;;25.90